Time;durP1;ratioP1;P1;durP2;ratioP2;P2;SDS_P1;SDS_P2;PMS_P1;PMS_P2;Temp;Humidity;BMP_temperature;BMP_pressure;BME280_temperature;BME280_humidity;BME280_pressure;Samples;Min_cycle;Max_cycle;Signal;HPM_P1;HPM_P2
2023/04/12 00:00:51;;;;;;;2.03;1.30;;;;;;;;;;5038406;28;20045;-82
2023/04/12 00:03:19;;;;;;;4.63;1.27;;;;;;;;;;5038415;28;20204;-80
2023/04/12 00:05:47;;;;;;;3.03;1.23;;;;;;;;;;5038759;28;20052;-82
2023/04/12 00:08:14;;;;;;;4.45;1.30;;;;;;;;;;5038164;28;20078;-83
2023/04/12 00:10:42;;;;;;;4.55;1.40;;;;;;;;;;5038100;28;20049;-83
2023/04/12 00:13:09;;;;;;;6.63;1.60;;;;;;;;;;5038795;28;20049;-83
2023/04/12 00:15:35;;;;;;;4.35;1.23;;;;;;;;;;5038529;28;20048;-82
2023/04/12 00:18:02;;;;;;;2.78;1.15;;;;;;;;;;5036346;28;20045;-81
2023/04/12 00:20:28;;;;;;;4.63;1.98;;;;;;;;;;5037187;28;20048;-83
2023/04/12 00:22:56;;;;;;;2.45;1.30;;;;;;;;;;5037359;28;20050;-80
2023/04/12 00:25:23;;;;;;;2.47;1.40;;;;;;;;;;5036873;28;20724;-79
2023/04/12 00:27:51;;;;;;;3.28;1.40;;;;;;;;;;5037221;28;20042;-83
2023/04/12 00:30:17;;;;;;;6.68;1.83;;;;;;;;;;5037087;28;20053;-82
2023/04/12 00:32:44;;;;;;;3.80;1.30;;;;;;;;;;5036666;28;20103;-83
2023/04/12 00:35:10;;;;;;;3.08;1.40;;;;;;;;;;5035490;28;20045;-80
2023/04/12 00:37:37;;;;;;;6.57;1.83;;;;;;;;;;5035803;28;20046;-81
2023/04/12 00:40:07;;;;;;;3.63;1.20;;;;;;;;;;5035607;28;20421;-81
2023/04/12 00:42:33;;;;;;;4.38;1.40;;;;;;;;;;5036026;28;20049;-79
2023/04/12 00:45:01;;;;;;;3.90;1.50;;;;;;;;;;5035430;28;20046;-80
2023/04/12 00:47:29;;;;;;;3.60;1.30;;;;;;;;;;5035615;28;20045;-80
2023/04/12 00:49:55;;;;;;;4.00;2.00;;;;;;;;;;5035439;28;20057;-80
2023/04/12 00:52:22;;;;;;;3.58;2.00;;;;;;;;;;5035581;28;20046;-81
2023/04/12 00:54:50;;;;;;;2.75;1.52;;;;;;;;;;5035405;28;20087;-79
2023/04/12 00:57:17;;;;;;;3.38;1.23;;;;;;;;;;5035073;28;20049;-80
2023/04/12 00:59:43;;;;;;;3.53;1.42;;;;;;;;;;5034710;28;20050;-80
2023/04/12 01:02:11;;;;;;;4.57;1.65;;;;;;;;;;5035144;28;20051;-80
2023/04/12 01:04:38;;;;;;;4.55;1.35;;;;;;;;;;5035321;28;20045;-81
2023/04/12 01:07:14;;;;;;;2.00;1.13;;;;;;;;;;5036059;28;20049;-80
2023/04/12 01:09:51;;;;;;;1.83;1.10;;;;;;;;;;5035571;28;20053;-79
2023/04/12 01:12:28;;;;;;;5.25;1.33;;;;;;;;;;5035085;28;20046;-79
2023/04/12 01:15:00;;;;;;;4.50;1.42;;;;;;;;;;5035260;28;20050;-78
2023/04/12 01:17:30;;;;;;;3.65;1.55;;;;;;;;;;5034701;28;20512;-79
2023/04/12 01:20:11;;;;;;;2.17;1.20;;;;;;;;;;5034407;28;20505;-80
2023/04/12 01:22:55;;;;;;;4.13;1.30;;;;;;;;;;5034922;28;20046;-80
2023/04/12 01:25:37;;;;;;;2.67;1.20;;;;;;;;;;5034694;28;20048;-80
2023/04/12 01:28:07;;;;;;;2.97;1.35;;;;;;;;;;5034626;28;20385;-78
2023/04/12 01:30:34;;;;;;;1.63;1.30;;;;;;;;;;5035020;28;20416;-79
2023/04/12 01:33:03;;;;;;;2.00;1.17;;;;;;;;;;5034954;28;20486;-80
2023/04/12 01:35:31;;;;;;;4.10;1.58;;;;;;;;;;5034773;28;20057;-79
2023/04/12 01:37:58;;;;;;;2.70;1.42;;;;;;;;;;5034783;28;20049;-80
2023/04/12 01:40:27;;;;;;;1.40;1.25;;;;;;;;;;5034895;28;20045;-80
2023/04/12 01:43:06;;;;;;;3.47;1.67;;;;;;;;;;5034932;28;20103;-80
2023/04/12 01:45:33;;;;;;;3.47;1.30;;;;;;;;;;5034489;28;20049;-80
2023/04/12 01:47:59;;;;;;;4.10;1.20;;;;;;;;;;5033566;28;20045;-81
2023/04/12 01:50:35;;;;;;;2.92;1.50;;;;;;;;;;5034737;28;20072;-80
2023/04/12 01:53:08;;;;;;;3.25;1.15;;;;;;;;;;5035332;28;20045;-81
2023/04/12 01:55:38;;;;;;;4.30;1.23;;;;;;;;;;5034195;28;20045;-80
2023/04/12 01:58:07;;;;;;;2.28;1.30;;;;;;;;;;5035268;28;20049;-79
2023/04/12 02:00:36;;;;;;;5.18;2.08;;;;;;;;;;5034604;28;20232;-81
2023/04/12 02:03:04;;;;;;;4.07;1.50;;;;;;;;;;5034513;28;20053;-79
2023/04/12 02:05:31;;;;;;;2.75;1.23;;;;;;;;;;5034936;28;20057;-80
2023/04/12 02:07:58;;;;;;;1.67;1.10;;;;;;;;;;5034615;28;20395;-80
2023/04/12 02:10:29;;;;;;;3.45;1.30;;;;;;;;;;5035027;28;20049;-79
2023/04/12 02:12:58;;;;;;;3.08;1.33;;;;;;;;;;5033947;28;20049;-81
2023/04/12 02:15:26;;;;;;;4.60;1.23;;;;;;;;;;5034475;28;20049;-81
2023/04/12 02:17:53;;;;;;;2.92;1.50;;;;;;;;;;5034144;28;20073;-80
2023/04/12 02:20:20;;;;;;;2.42;1.38;;;;;;;;;;5034805;28;20049;-80
2023/04/12 02:22:46;;;;;;;1.88;1.15;;;;;;;;;;5034293;28;20128;-80
2023/04/12 02:25:14;;;;;;;2.35;1.10;;;;;;;;;;5034541;28;20060;-80
2023/04/12 02:27:40;;;;;;;2.65;1.50;;;;;;;;;;5034446;28;20049;-80
2023/04/12 02:30:08;;;;;;;2.80;1.30;;;;;;;;;;5034378;28;20501;-81
2023/04/12 02:32:43;;;;;;;5.75;1.98;;;;;;;;;;5035068;28;20060;-81
2023/04/12 02:35:09;;;;;;;1.45;1.20;;;;;;;;;;5035356;28;20055;-82
2023/04/12 02:37:37;;;;;;;3.05;1.13;;;;;;;;;;5034207;28;20045;-80
2023/04/12 02:40:05;;;;;;;4.57;1.90;;;;;;;;;;5034460;28;20049;-82
2023/04/12 02:42:32;;;;;;;3.92;1.35;;;;;;;;;;5034969;28;20057;-81
2023/04/12 02:44:58;;;;;;;2.15;1.20;;;;;;;;;;5034449;28;20050;-80
2023/04/12 02:47:27;;;;;;;3.15;1.40;;;;;;;;;;5033853;28;20045;-80
2023/04/12 02:49:55;;;;;;;1.85;1.35;;;;;;;;;;5034240;28;20080;-80
2023/04/12 02:52:22;;;;;;;2.70;1.40;;;;;;;;;;5034448;28;20050;-80
2023/04/12 02:54:49;;;;;;;2.97;1.30;;;;;;;;;;5034899;28;20470;-80
2023/04/12 02:57:16;;;;;;;2.55;1.00;;;;;;;;;;5036028;28;20516;-80
2023/04/12 02:59:42;;;;;;;1.77;1.33;;;;;;;;;;5037048;28;20477;-81
2023/04/12 03:02:09;;;;;;;4.05;1.40;;;;;;;;;;5037355;28;20049;-80
2023/04/12 03:04:38;;;;;;;4.20;1.33;;;;;;;;;;5037485;28;20076;-80
2023/04/12 03:07:06;;;;;;;3.15;2.25;;;;;;;;;;5037224;28;20049;-80
2023/04/12 03:09:33;;;;;;;6.13;1.92;;;;;;;;;;5037691;28;20049;-79
2023/04/12 03:12:00;;;;;;;3.03;1.63;;;;;;;;;;5037959;28;20091;-79
2023/04/12 03:14:26;;;;;;;3.83;1.95;;;;;;;;;;5037402;28;20053;-81
2023/04/12 03:16:53;;;;;;;3.13;1.80;;;;;;;;;;5036831;28;20072;-81
2023/04/12 03:19:19;;;;;;;3.47;1.90;;;;;;;;;;5036529;28;20046;-81
2023/04/12 03:21:46;;;;;;;2.47;1.83;;;;;;;;;;5037035;28;20049;-81
2023/04/12 03:24:14;;;;;;;2.70;1.92;;;;;;;;;;5036720;28;20408;-81
2023/04/12 03:26:42;;;;;;;4.47;2.15;;;;;;;;;;5037368;28;20140;-81
2023/04/12 03:29:09;;;;;;;4.10;2.20;;;;;;;;;;5036831;28;20060;-79
2023/04/12 03:31:36;;;;;;;3.78;2.53;;;;;;;;;;5037340;28;20046;-80
2023/04/12 03:34:02;;;;;;;3.08;2.70;;;;;;;;;;5036693;28;20096;-80
2023/04/12 03:36:30;;;;;;;3.55;2.67;;;;;;;;;;5037456;28;20042;-82
2023/04/12 03:38:56;;;;;;;4.90;2.88;;;;;;;;;;5036361;28;20046;-81
2023/04/12 03:41:25;;;;;;;3.75;2.70;;;;;;;;;;5037521;28;20049;-80
2023/04/12 03:43:52;;;;;;;4.75;2.80;;;;;;;;;;5036646;28;20049;-79
2023/04/12 03:46:18;;;;;;;5.95;3.05;;;;;;;;;;5036864;28;20049;-81
2023/04/12 03:48:45;;;;;;;4.20;3.00;;;;;;;;;;5036508;28;20068;-81
2023/04/12 03:51:12;;;;;;;6.85;3.42;;;;;;;;;;5036977;28;20072;-79
2023/04/12 03:53:38;;;;;;;3.85;2.80;;;;;;;;;;5037123;28;20051;-79
2023/04/12 03:56:06;;;;;;;5.00;3.08;;;;;;;;;;5037232;28;20046;-81
2023/04/12 03:58:34;;;;;;;4.38;3.35;;;;;;;;;;5036776;28;20053;-81
2023/04/12 04:01:02;;;;;;;4.05;2.97;;;;;;;;;;5036473;28;20049;-81
2023/04/12 04:03:29;;;;;;;4.15;2.92;;;;;;;;;;5036266;28;20045;-81
2023/04/12 04:05:56;;;;;;;2.65;2.45;;;;;;;;;;5037184;28;20631;-80
2023/04/12 04:08:22;;;;;;;3.35;2.75;;;;;;;;;;5036687;28;20405;-80
2023/04/12 04:10:49;;;;;;;4.90;2.97;;;;;;;;;;5036117;28;20046;-80
2023/04/12 04:13:15;;;;;;;5.32;3.25;;;;;;;;;;5036707;28;20508;-81
2023/04/12 04:15:43;;;;;;;3.33;2.78;;;;;;;;;;5036190;28;20045;-81
2023/04/12 04:18:10;;;;;;;4.85;3.08;;;;;;;;;;5036543;28;20060;-80
2023/04/12 04:20:37;;;;;;;5.90;3.40;;;;;;;;;;5036025;28;20041;-81
2023/04/12 04:23:04;;;;;;;3.35;2.72;;;;;;;;;;5036231;28;20052;-79
2023/04/12 04:25:30;;;;;;;3.25;2.53;;;;;;;;;;5036284;28;20049;-81
2023/04/12 04:27:58;;;;;;;3.65;3.10;;;;;;;;;;5035819;28;20056;-80
2023/04/12 04:30:25;;;;;;;4.10;2.92;;;;;;;;;;5035406;28;20076;-81
2023/04/12 04:32:53;;;;;;;5.43;3.13;;;;;;;;;;5036189;28;20056;-80
2023/04/12 04:35:20;;;;;;;4.40;3.28;;;;;;;;;;5036064;28;20045;-80
2023/04/12 04:37:47;;;;;;;3.85;2.97;;;;;;;;;;5035606;28;20512;-81
2023/04/12 04:40:14;;;;;;;3.85;3.03;;;;;;;;;;5041151;28;20104;-82
2023/04/12 04:42:41;;;;;;;3.53;2.85;;;;;;;;;;5040956;28;20103;-82
2023/04/12 04:45:13;;;;;;;4.28;3.15;;;;;;;;;;5040739;28;20045;-82
2023/04/12 04:47:40;;;;;;;2.95;2.50;;;;;;;;;;5040516;28;20107;-80
2023/04/12 04:50:08;;;;;;;5.30;3.15;;;;;;;;;;5039789;28;20059;-81
2023/04/12 04:52:36;;;;;;;5.00;2.90;;;;;;;;;;5041930;28;20145;-81
2023/04/12 04:55:03;;;;;;;2.90;2.60;;;;;;;;;;5041329;28;20045;-82
2023/04/12 04:57:29;;;;;;;4.97;2.50;;;;;;;;;;5040647;28;20049;-82
2023/04/12 04:59:56;;;;;;;3.72;2.35;;;;;;;;;;5041717;28;20041;-81
2023/04/12 05:02:22;;;;;;;2.92;2.47;;;;;;;;;;5039964;28;20045;-83
2023/04/12 05:04:50;;;;;;;3.95;2.90;;;;;;;;;;5041411;28;20338;-82
2023/04/12 05:07:18;;;;;;;3.95;2.22;;;;;;;;;;5040690;28;20421;-82
2023/04/12 05:09:45;;;;;;;3.10;2.50;;;;;;;;;;5040744;28;20052;-82
2023/04/12 05:12:11;;;;;;;3.40;2.20;;;;;;;;;;5041041;28;20056;-82
2023/04/12 05:14:38;;;;;;;2.33;2.13;;;;;;;;;;5040653;28;20132;-81
2023/04/12 05:17:05;;;;;;;2.20;2.00;;;;;;;;;;5040524;28;20118;-81
2023/04/12 05:19:32;;;;;;;2.20;2.00;;;;;;;;;;5040881;28;20060;-81
2023/04/12 05:21:58;;;;;;;3.30;2.40;;;;;;;;;;5041004;28;20045;-81
2023/04/12 05:24:26;;;;;;;3.55;2.20;;;;;;;;;;5040996;28;20049;-80
2023/04/12 05:26:52;;;;;;;3.90;2.10;;;;;;;;;;5039731;28;20052;-79
2023/04/12 05:29:19;;;;;;;2.88;2.10;;;;;;;;;;5041824;28;20042;-83
2023/04/12 05:31:46;;;;;;;2.00;1.80;;;;;;;;;;5041652;28;20049;-82
2023/04/12 05:34:12;;;;;;;2.75;2.03;;;;;;;;;;5035707;28;20049;-81
2023/04/12 05:36:39;;;;;;;2.13;1.60;;;;;;;;;;5030844;28;20058;-81
2023/04/12 05:39:05;;;;;;;2.20;2.00;;;;;;;;;;5032763;28;20053;-82
2023/04/12 05:41:33;;;;;;;3.58;1.90;;;;;;;;;;5035867;28;20628;-82
2023/04/12 05:44:00;;;;;;;2.30;1.70;;;;;;;;;;5034627;28;20400;-81
2023/04/12 05:46:26;;;;;;;2.58;1.75;;;;;;;;;;5035097;28;20500;-80
2023/04/12 05:48:53;;;;;;;4.82;1.90;;;;;;;;;;5034336;28;20527;-79
2023/04/12 05:51:20;;;;;;;3.17;1.70;;;;;;;;;;5035570;28;20049;-81
2023/04/12 05:53:46;;;;;;;2.60;2.05;;;;;;;;;;5033160;28;20516;-83
2023/04/12 05:56:13;;;;;;;4.15;2.30;;;;;;;;;;5026610;28;20051;-83
2023/04/12 05:58:41;;;;;;;2.15;1.90;;;;;;;;;;5031581;28;20987;-81
2023/04/12 06:01:07;;;;;;;2.50;1.80;;;;;;;;;;5027086;28;20052;-80
2023/04/12 06:03:34;;;;;;;2.65;1.67;;;;;;;;;;5030242;28;20049;-82
2023/04/12 06:06:01;;;;;;;1.90;1.60;;;;;;;;;;5035135;28;20518;-79
2023/04/12 06:08:28;;;;;;;2.38;1.58;;;;;;;;;;5034036;28;20409;-79
2023/04/12 06:10:54;;;;;;;2.30;1.73;;;;;;;;;;5036644;28;20049;-78
2023/04/12 06:13:21;;;;;;;2.63;2.05;;;;;;;;;;5037783;28;20108;-79
2023/04/12 06:15:49;;;;;;;3.00;1.70;;;;;;;;;;5036221;28;20045;-78
2023/04/12 06:18:16;;;;;;;2.65;1.60;;;;;;;;;;5036427;28;20049;-78
2023/04/12 06:20:42;;;;;;;1.63;1.40;;;;;;;;;;5038153;28;20045;-79
2023/04/12 06:23:09;;;;;;;2.53;1.60;;;;;;;;;;5030959;28;20056;-79
2023/04/12 06:25:36;;;;;;;4.57;1.90;;;;;;;;;;5036297;28;20143;-79
2023/04/12 06:28:02;;;;;;;2.17;1.60;;;;;;;;;;5036771;28;20041;-78
2023/04/12 06:30:29;;;;;;;2.33;1.63;;;;;;;;;;5037429;28;20044;-81
2023/04/12 06:32:57;;;;;;;2.25;1.50;;;;;;;;;;5036167;28;20643;-81
2023/04/12 06:35:23;;;;;;;3.20;1.90;;;;;;;;;;5040024;28;20412;-81
2023/04/12 06:37:50;;;;;;;3.90;1.90;;;;;;;;;;5041970;28;20045;-79
2023/04/12 06:40:16;;;;;;;2.97;1.67;;;;;;;;;;5041613;28;20041;-80
2023/04/12 06:42:43;;;;;;;1.80;1.70;;;;;;;;;;5045441;28;20047;-78
2023/04/12 06:45:10;;;;;;;2.78;1.80;;;;;;;;;;5048555;28;20436;-82
2023/04/12 06:47:37;;;;;;;2.13;1.60;;;;;;;;;;5044496;28;20049;-78
2023/04/12 06:50:06;;;;;;;2.67;1.63;;;;;;;;;;5044128;28;20050;-80
2023/04/12 06:52:33;;;;;;;2.50;1.85;;;;;;;;;;5038129;28;20041;-80
2023/04/12 06:54:59;;;;;;;3.38;2.08;;;;;;;;;;5029346;28;20038;-79
2023/04/12 06:57:26;;;;;;;3.08;1.95;;;;;;;;;;5043367;28;20050;-81
2023/04/12 06:59:53;;;;;;;2.95;2.67;;;;;;;;;;5045977;28;20057;-81
2023/04/12 07:02:19;;;;;;;3.38;2.20;;;;;;;;;;5047161;28;20048;-78
2023/04/12 07:04:46;;;;;;;2.25;1.80;;;;;;;;;;5046612;28;20408;-80
2023/04/12 07:07:14;;;;;;;2.75;1.80;;;;;;;;;;5044339;28;20049;-80
2023/04/12 07:09:41;;;;;;;3.15;1.88;;;;;;;;;;5043234;28;20056;-80
2023/04/12 07:12:08;;;;;;;2.65;1.90;;;;;;;;;;5042704;28;20056;-80
2023/04/12 07:14:35;;;;;;;3.38;1.98;;;;;;;;;;5040157;28;20064;-80
2023/04/12 07:17:01;;;;;;;2.25;2.05;;;;;;;;;;5038853;28;20046;-81
2023/04/12 07:19:28;;;;;;;4.80;1.90;;;;;;;;;;5036843;28;20476;-80
2023/04/12 07:21:55;;;;;;;3.03;1.75;;;;;;;;;;5039812;28;20045;-79
2023/04/12 07:24:23;;;;;;;3.40;1.83;;;;;;;;;;5039988;28;20136;-81
2023/04/12 07:26:49;;;;;;;3.08;2.42;;;;;;;;;;5042747;28;20056;-79
2023/04/12 07:29:16;;;;;;;3.25;2.00;;;;;;;;;;5041176;28;20060;-81
2023/04/12 07:31:44;;;;;;;5.22;3.40;;;;;;;;;;5039192;28;20111;-81
2023/04/12 07:34:11;;;;;;;5.63;2.38;;;;;;;;;;5042767;28;20041;-81
2023/04/12 07:36:37;;;;;;;4.35;2.40;;;;;;;;;;5043631;28;20055;-79
2023/04/12 07:39:04;;;;;;;3.65;2.50;;;;;;;;;;5041856;28;20045;-79
2023/04/12 07:41:32;;;;;;;4.30;2.50;;;;;;;;;;5041403;28;20108;-79
2023/04/12 07:43:59;;;;;;;2.60;2.00;;;;;;;;;;5041195;28;20045;-80
2023/04/12 07:46:26;;;;;;;4.10;2.72;;;;;;;;;;5038319;28;20680;-79
2023/04/12 07:48:52;;;;;;;3.97;2.80;;;;;;;;;;5039446;28;20045;-80
2023/04/12 07:51:19;;;;;;;5.28;2.60;;;;;;;;;;5037376;28;20427;-80
2023/04/12 07:53:47;;;;;;;5.43;3.03;;;;;;;;;;5038854;28;20113;-80
2023/04/12 07:56:14;;;;;;;5.55;3.42;;;;;;;;;;5039267;28;20068;-80
2023/04/12 07:58:42;;;;;;;4.07;2.53;;;;;;;;;;5040536;28;20073;-81
2023/04/12 08:01:08;;;;;;;4.82;2.58;;;;;;;;;;5038683;28;20042;-85
2023/04/12 08:03:35;;;;;;;3.90;2.38;;;;;;;;;;5039432;28;20128;-83
2023/04/12 08:06:01;;;;;;;3.63;2.08;;;;;;;;;;5036986;28;20045;-82
2023/04/12 08:08:28;;;;;;;3.63;1.85;;;;;;;;;;5037168;28;20080;-80
2023/04/12 08:10:54;;;;;;;3.60;1.70;;;;;;;;;;5036956;28;20045;-80
2023/04/12 08:13:21;;;;;;;2.92;2.10;;;;;;;;;;5037853;28;20467;-81
2023/04/12 08:15:49;;;;;;;3.45;2.40;;;;;;;;;;5036581;28;20570;-80
2023/04/12 08:18:16;;;;;;;3.50;2.15;;;;;;;;;;5032599;28;20042;-80
2023/04/12 08:20:43;;;;;;;3.00;1.80;;;;;;;;;;5032856;28;20049;-80
2023/04/12 08:23:10;;;;;;;2.90;1.60;;;;;;;;;;5031037;28;20102;-83
2023/04/12 08:25:37;;;;;;;2.90;1.75;;;;;;;;;;5037134;28;20056;-81
2023/04/12 08:28:04;;;;;;;4.22;2.00;;;;;;;;;;5026620;28;20045;-80
2023/04/12 08:30:30;;;;;;;2.92;1.65;;;;;;;;;;5036386;28;20046;-81
2023/04/12 08:32:58;;;;;;;2.20;1.85;;;;;;;;;;5034439;28;20060;-81
2023/04/12 08:35:25;;;;;;;3.70;1.52;;;;;;;;;;5036107;28;20141;-83
2023/04/12 08:37:52;;;;;;;4.35;2.15;;;;;;;;;;5036272;28;20128;-83
2023/04/12 08:40:20;;;;;;;4.43;1.85;;;;;;;;;;5036866;28;20092;-82
2023/04/12 08:42:47;;;;;;;2.20;1.90;;;;;;;;;;5034686;28;20064;-83
2023/04/12 08:45:14;;;;;;;2.45;1.40;;;;;;;;;;5035483;28;20045;-84
2023/04/12 08:47:42;;;;;;;2.30;1.60;;;;;;;;;;5035553;28;20052;-84
2023/04/12 08:50:12;;;;;;;2.95;1.85;;;;;;;;;;5029108;28;20061;-83
2023/04/12 08:52:40;;;;;;;3.35;1.80;;;;;;;;;;5032376;28;20053;-85
2023/04/12 08:55:08;;;;;;;3.22;1.63;;;;;;;;;;5036540;28;20049;-84
2023/04/12 08:57:35;;;;;;;4.85;1.80;;;;;;;;;;5037196;28;20113;-85
2023/04/12 09:00:02;;;;;;;6.10;3.60;;;;;;;;;;5038903;28;20060;-84
2023/04/12 09:02:30;;;;;;;4.28;2.72;;;;;;;;;;5039667;28;20069;-82
2023/04/12 09:04:57;;;;;;;7.07;3.10;;;;;;;;;;5037972;28;20583;-83
2023/04/12 09:07:26;;;;;;;4.88;3.55;;;;;;;;;;5032057;28;20037;-83
2023/04/12 09:09:55;;;;;;;4.78;2.72;;;;;;;;;;5024156;28;20186;-82
2023/04/12 09:12:23;;;;;;;5.47;3.22;;;;;;;;;;5028627;28;20412;-82
2023/04/12 09:15:06;;;;;;;5.65;2.63;;;;;;;;;;5032485;28;20061;-82
2023/04/12 09:17:35;;;;;;;2.70;1.98;;;;;;;;;;5035564;28;20057;-81
2023/04/12 09:20:03;;;;;;;2.58;1.65;;;;;;;;;;5032308;28;20124;-80
2023/04/12 09:22:35;;;;;;;4.05;2.08;;;;;;;;;;5036741;28;20046;-80
2023/04/12 09:25:02;;;;;;;2.50;1.65;;;;;;;;;;5035597;28;20067;-82
2023/04/12 09:27:29;;;;;;;3.95;1.98;;;;;;;;;;5034600;28;20061;-83
2023/04/12 09:30:07;;;;;;;2.17;1.58;;;;;;;;;;5013675;28;20120;-81
2023/04/12 09:32:33;;;;;;;1.90;1.27;;;;;;;;;;5015092;28;20041;-81
2023/04/12 09:35:01;;;;;;;1.98;1.40;;;;;;;;;;5022644;28;20041;-81
2023/04/12 09:37:28;;;;;;;2.03;1.30;;;;;;;;;;5034193;28;20068;-82
2023/04/12 09:40:03;;;;;;;2.22;1.10;;;;;;;;;;5034903;28;20041;-82
2023/04/12 09:42:30;;;;;;;2.00;1.20;;;;;;;;;;5014564;28;20086;-82
2023/04/12 09:44:57;;;;;;;2.35;1.30;;;;;;;;;;5015744;28;20150;-84
2023/04/12 09:47:37;;;;;;;4.53;1.52;;;;;;;;;;5015421;28;20048;-81
2023/04/12 09:50:06;;;;;;;2.15;1.58;;;;;;;;;;5031380;28;20103;-83
2023/04/12 09:52:36;;;;;;;1.40;1.20;;;;;;;;;;5034949;28;20088;-83
2023/04/12 09:55:09;;;;;;;2.22;1.30;;;;;;;;;;5034679;28;20042;-84
2023/04/12 09:57:37;;;;;;;1.10;1.00;;;;;;;;;;5033490;28;20185;-82
2023/04/12 10:00:10;;;;;;;1.60;1.10;;;;;;;;;;5034381;28;20046;-83
2023/04/12 10:02:38;;;;;;;1.98;1.60;;;;;;;;;;5032239;28;20041;-81
2023/04/12 10:05:05;;;;;;;3.22;1.15;;;;;;;;;;5033430;28;20041;-84
2023/04/12 10:07:34;;;;;;;1.67;1.00;;;;;;;;;;5032978;28;20085;-83
2023/04/12 10:10:04;;;;;;;1.45;0.90;;;;;;;;;;5034356;28;20041;-82
2023/04/12 10:12:30;;;;;;;0.77;0.70;;;;;;;;;;5033921;28;20045;-83
2023/04/12 10:14:58;;;;;;;0.60;0.57;;;;;;;;;;5035018;28;20237;-81
2023/04/12 10:17:26;;;;;;;0.85;0.70;;;;;;;;;;5035956;28;20045;-81
2023/04/12 10:19:53;;;;;;;1.55;0.88;;;;;;;;;;5035135;28;20045;-83
2023/04/12 10:22:19;;;;;;;1.63;0.70;;;;;;;;;;5029568;28;20042;-82
2023/04/12 10:24:46;;;;;;;1.30;0.93;;;;;;;;;;5034226;28;20067;-81
2023/04/12 10:27:24;;;;;;;1.48;0.90;;;;;;;;;;5035942;28;20049;-81
2023/04/12 10:29:52;;;;;;;1.80;1.05;;;;;;;;;;5034900;28;20136;-79
2023/04/12 10:32:21;;;;;;;1.77;0.95;;;;;;;;;;5037339;28;20049;-80
2023/04/12 10:34:51;;;;;;;1.83;1.10;;;;;;;;;;5029731;28;20133;-80
2023/04/12 10:37:18;;;;;;;1.63;1.10;;;;;;;;;;5023100;28;20053;-81
2023/04/12 10:39:51;;;;;;;1.95;0.70;;;;;;;;;;5033869;28;20041;-80
2023/04/12 10:42:23;;;;;;;;;;;;;;;;;;5035298;28;20038;-80
2023/04/12 10:44:51;;;;;;;1.38;0.70;;;;;;;;;;5034044;28;20234;-80
2023/04/12 10:47:51;;;;;;;0.63;0.60;;;;;;;;;;5035360;28;20060;-80
2023/04/12 10:50:24;;;;;;;0.90;0.60;;;;;;;;;;5034644;28;20062;-80
2023/04/12 10:53:21;;;;;;;0.82;0.60;;;;;;;;;;5014078;28;20049;-80
2023/04/12 10:55:48;;;;;;;1.00;0.60;;;;;;;;;;5023404;28;20061;-81
2023/04/12 11:01:20;;;;;;;1.75;0.70;;;;;;;;;;5170073;27;20326;-66
2023/04/12 11:04:11;;;;;;;1.88;1.10;;;;;;;;;;5168830;27;20245;-66
2023/04/12 11:06:50;;;;;;;0.68;0.63;;;;;;;;;;5148630;27;20119;-67
2023/04/12 11:09:21;;;;;;;1.50;0.75;;;;;;;;;;5148940;27;20090;-67
2023/04/12 11:11:48;;;;;;;1.10;0.70;;;;;;;;;;5149153;27;20047;-66
2023/04/12 11:14:15;;;;;;;1.13;0.77;;;;;;;;;;5163502;27;20297;-66
2023/04/12 11:17:24;;;;;;;1.75;0.85;;;;;;;;;;5170168;27;20083;-66
2023/04/12 11:19:57;;;;;;;0.70;0.70;;;;;;;;;;5148475;27;20050;-66
2023/04/12 11:22:26;;;;;;;2.22;0.65;;;;;;;;;;5166374;27;20447;-66
2023/04/12 11:24:55;;;;;;;1.77;0.80;;;;;;;;;;5169628;27;20050;-66
2023/04/12 11:27:24;;;;;;;1.92;1.00;;;;;;;;;;5169336;27;20089;-67
2023/04/12 11:29:53;;;;;;;1.10;0.98;;;;;;;;;;5162635;27;20038;-67
2023/04/12 11:32:21;;;;;;;0.60;0.60;;;;;;;;;;5159177;27;20892;-66
2023/04/12 11:34:49;;;;;;;1.40;0.60;;;;;;;;;;5165353;27;20034;-66
2023/04/12 11:37:17;;;;;;;0.93;0.68;;;;;;;;;;5157078;27;20047;-67
2023/04/12 11:39:45;;;;;;;0.98;0.50;;;;;;;;;;5164924;27;20048;-67
2023/04/12 11:42:16;;;;;;;0.40;0.40;;;;;;;;;;5169722;27;20053;-66
2023/04/12 11:44:44;;;;;;;1.95;0.50;;;;;;;;;;5168703;27;20402;-66
2023/04/12 11:47:16;;;;;;;1.05;0.90;;;;;;;;;;5169343;27;20051;-67
2023/04/12 11:49:47;;;;;;;2.40;0.80;;;;;;;;;;5168927;27;20129;-67
2023/04/12 11:52:16;;;;;;;0.57;0.57;;;;;;;;;;5169346;27;20050;-67
2023/04/12 11:54:44;;;;;;;0.40;0.40;;;;;;;;;;5168125;27;20103;-67
2023/04/12 11:57:12;;;;;;;0.60;0.60;;;;;;;;;;5169186;27;20050;-67
2023/04/12 11:59:39;;;;;;;0.60;0.60;;;;;;;;;;5168773;27;20046;-66
2023/04/12 12:02:08;;;;;;;0.55;0.55;;;;;;;;;;5155451;27;20046;-67
2023/04/12 12:04:35;;;;;;;0.40;0.40;;;;;;;;;;5158111;27;20050;-66
2023/04/12 12:07:02;;;;;;;0.93;0.50;;;;;;;;;;5158485;27;20050;-67
2023/04/12 12:09:31;;;;;;;0.50;0.50;;;;;;;;;;5168699;27;20046;-67
2023/04/12 12:11:58;;;;;;;0.60;0.43;;;;;;;;;;5157330;27;20396;-66
2023/04/12 12:14:26;;;;;;;0.70;0.50;;;;;;;;;;5133049;27;20047;-66
2023/04/12 12:16:55;;;;;;;0.65;0.50;;;;;;;;;;5133558;27;20039;-66
2023/04/12 12:19:32;;;;;;;0.90;0.60;;;;;;;;;;5133078;27;20092;-67
2023/04/12 12:22:07;;;;;;;0.77;0.70;;;;;;;;;;5133721;27;20051;-67
2023/04/12 12:24:35;;;;;;;0.57;0.50;;;;;;;;;;5132927;27;20043;-66
2023/04/12 12:27:02;;;;;;;0.70;0.60;;;;;;;;;;5133295;27;20142;-67
2023/04/12 12:29:35;;;;;;;0.50;0.50;;;;;;;;;;5138454;27;20089;-67
2023/04/12 12:32:01;;;;;;;;;;;;;;;;;;5154387;27;20141;-67
2023/04/12 12:34:32;;;;;;;0.68;0.50;;;;;;;;;;5154979;27;20364;-66
2023/04/12 12:36:59;;;;;;;0.50;0.50;;;;;;;;;;5154877;27;20428;-67
2023/04/12 12:39:26;;;;;;;0.57;0.55;;;;;;;;;;5154263;27;20046;-67
2023/04/12 12:41:57;;;;;;;0.57;0.50;;;;;;;;;;5154596;27;20421;-67
2023/04/12 12:44:24;;;;;;;1.00;0.80;;;;;;;;;;5154508;27;20182;-67
2023/04/12 12:46:50;;;;;;;1.23;0.77;;;;;;;;;;5154235;27;20072;-66
2023/04/12 12:49:17;;;;;;;1.50;0.60;;;;;;;;;;5154253;27;20057;-67
2023/04/12 12:51:44;;;;;;;0.70;0.60;;;;;;;;;;5154170;27;20046;-66
2023/04/12 12:54:11;;;;;;;0.70;0.70;;;;;;;;;;5153722;27;20039;-67
2023/04/12 12:56:37;;;;;;;1.55;0.65;;;;;;;;;;5154070;27;20477;-67
2023/04/12 12:59:05;;;;;;;0.80;0.73;;;;;;;;;;5153270;27;20508;-67
2023/04/12 13:01:32;;;;;;;0.68;0.68;;;;;;;;;;5153703;27;20416;-67
2023/04/12 13:03:58;;;;;;;0.60;0.52;;;;;;;;;;5153890;27;20484;-66
2023/04/12 13:06:26;;;;;;;0.47;0.47;;;;;;;;;;5154000;27;20039;-67
2023/04/12 13:08:53;;;;;;;0.50;0.50;;;;;;;;;;5154178;27;20480;-67
2023/04/12 13:11:20;;;;;;;2.85;0.47;;;;;;;;;;5138888;27;20104;-66
2023/04/12 13:13:47;;;;;;;0.60;0.50;;;;;;;;;;5133225;27;20092;-67
2023/04/12 13:16:15;;;;;;;0.52;0.52;;;;;;;;;;5132475;27;20043;-66
2023/04/12 13:18:42;;;;;;;0.75;0.47;;;;;;;;;;5132895;27;20047;-68
2023/04/12 13:21:09;;;;;;;0.82;0.52;;;;;;;;;;5132689;27;20039;-67
2023/04/12 13:23:35;;;;;;;0.50;0.50;;;;;;;;;;5135377;27;20053;-66
2023/04/12 13:26:02;;;;;;;0.60;0.40;;;;;;;;;;5134635;27;20051;-66
2023/04/12 13:28:28;;;;;;;0.60;0.40;;;;;;;;;;5132963;27;20049;-66
2023/04/12 13:30:56;;;;;;;0.50;0.50;;;;;;;;;;5132876;27;20107;-66
2023/04/12 13:33:24;;;;;;;0.40;0.40;;;;;;;;;;5132651;27;20055;-66
2023/04/12 13:35:50;;;;;;;2.22;1.20;;;;;;;;;;5143706;27;20043;-66
2023/04/12 13:38:17;;;;;;;1.25;0.90;;;;;;;;;;5150745;27;20469;-66
2023/04/12 13:40:44;;;;;;;2.05;1.08;;;;;;;;;;5132876;27;20096;-67
2023/04/12 13:43:10;;;;;;;1.88;0.85;;;;;;;;;;5132811;27;20062;-66
2023/04/12 13:45:37;;;;;;;1.25;0.95;;;;;;;;;;5132574;27;20069;-67
2023/04/12 13:48:04;;;;;;;0.80;0.80;;;;;;;;;;5132164;27;20058;-69
2023/04/12 13:50:32;;;;;;;1.27;1.00;;;;;;;;;;5141696;27;20047;-67
2023/04/12 13:52:58;;;;;;;0.70;0.70;;;;;;;;;;5152865;27;20407;-67
2023/04/12 13:55:25;;;;;;;4.30;1.50;;;;;;;;;;5152802;27;20038;-67
2023/04/12 13:57:51;;;;;;;0.88;0.85;;;;;;;;;;5152145;27;20042;-67
2023/04/12 14:00:19;;;;;;;1.02;0.93;;;;;;;;;;5152108;27;20038;-67
2023/04/12 14:02:46;;;;;;;1.13;1.00;;;;;;;;;;5151557;27;20050;-67
2023/04/12 14:05:12;;;;;;;2.22;1.90;;;;;;;;;;5132766;27;20047;-68
2023/04/12 14:07:40;;;;;;;2.58;2.35;;;;;;;;;;5131387;27;20070;-68
2023/04/12 14:10:08;;;;;;;1.70;1.60;;;;;;;;;;5136350;27;20038;-67
2023/04/12 14:12:34;;;;;;;1.40;0.88;;;;;;;;;;5152336;27;20038;-67
2023/04/12 14:15:03;;;;;;;0.57;0.50;;;;;;;;;;5151646;27;20408;-68
2023/04/12 14:17:31;;;;;;;0.77;0.70;;;;;;;;;;5152446;27;20099;-67
2023/04/12 14:19:57;;;;;;;0.63;0.60;;;;;;;;;;5151950;27;20046;-67
2023/04/12 14:22:24;;;;;;;1.27;0.85;;;;;;;;;;5152122;27;20082;-67
2023/04/12 14:24:52;;;;;;;1.70;1.10;;;;;;;;;;5151496;27;20049;-67
2023/04/12 14:27:19;;;;;;;0.90;0.63;;;;;;;;;;5152347;27;20049;-66
2023/04/12 14:29:45;;;;;;;3.42;0.70;;;;;;;;;;5140759;27;20043;-66
2023/04/12 14:32:12;;;;;;;1.85;0.63;;;;;;;;;;5130838;27;20658;-67
2023/04/12 14:34:38;;;;;;;1.10;0.70;;;;;;;;;;5146883;27;20047;-67
2023/04/12 14:37:05;;;;;;;0.70;0.70;;;;;;;;;;5134576;27;20043;-67
2023/04/12 14:39:32;;;;;;;0.75;0.60;;;;;;;;;;5131723;27;20461;-66
2023/04/12 14:42:00;;;;;;;1.00;0.60;;;;;;;;;;5140283;27;20400;-66
2023/04/12 14:44:26;;;;;;;1.98;0.70;;;;;;;;;;5152240;27;20078;-67
2023/04/12 14:46:53;;;;;;;0.65;0.50;;;;;;;;;;5152115;27;20042;-67
2023/04/12 14:49:20;;;;;;;1.30;0.68;;;;;;;;;;5140784;27;20130;-67
2023/04/12 14:51:46;;;;;;;1.02;0.70;;;;;;;;;;5131082;27;20134;-67